Time;durP1;ratioP1;P1;durP2;ratioP2;P2;SDS_P1;SDS_P2;PMS_P1;PMS_P2;Temp;Humidity;BMP_temperature;BMP_pressure;BME280_temperature;BME280_humidity;BME280_pressure;Samples;Min_cycle;Max_cycle;Signal;HPM_P1;HPM_P2
2022/04/07 00:00:51;;;;;;;8.93;7.77;;;;;;;;;;5073659;28;20203;-72
2022/04/07 00:03:20;;;;;;;9.50;7.87;;;;;;;;;;5057527;28;20658;-73
2022/04/07 00:05:48;;;;;;;8.13;7.33;;;;;;;;;;5081231;28;20224;-73
2022/04/07 00:08:17;;;;;;;8.23;7.43;;;;;;;;;;5081123;28;20283;-73
2022/04/07 00:10:46;;;;;;;8.07;6.93;;;;;;;;;;5073474;28;20203;-73
2022/04/07 00:13:16;;;;;;;7.83;7.07;;;;;;;;;;5073409;28;20232;-72
2022/04/07 00:15:45;;;;;;;8.47;6.57;;;;;;;;;;5072832;28;20252;-73
2022/04/07 00:18:13;;;;;;;9.13;6.80;;;;;;;;;;5073486;28;20693;-74
2022/04/07 00:20:43;;;;;;;9.43;6.23;;;;;;;;;;5073381;28;20222;-73
2022/04/07 00:23:11;;;;;;;6.00;5.40;;;;;;;;;;5072485;28;20198;-72
2022/04/07 00:25:39;;;;;;;7.27;5.80;;;;;;;;;;5072716;28;20210;-72
2022/04/07 00:28:08;;;;;;;7.40;5.20;;;;;;;;;;5071772;28;20214;-73
2022/04/07 00:30:39;;;;;;;5.30;4.80;;;;;;;;;;5073683;28;20206;-72
2022/04/07 00:33:08;;;;;;;6.17;5.43;;;;;;;;;;5071942;28;20210;-72
2022/04/07 00:35:36;;;;;;;6.97;5.27;;;;;;;;;;5072787;28;20213;-73
2022/04/07 00:38:05;;;;;;;5.90;5.30;;;;;;;;;;5082346;28;20230;-72
2022/04/07 00:40:33;;;;;;;6.10;4.93;;;;;;;;;;5072215;28;20222;-72
2022/04/07 00:43:02;;;;;;;8.33;5.33;;;;;;;;;;5072834;28;20194;-74
2022/04/07 00:45:30;;;;;;;5.83;5.20;;;;;;;;;;5073331;28;20229;-72
2022/04/07 00:48:00;;;;;;;6.80;6.07;;;;;;;;;;5073313;28;20593;-73
2022/04/07 00:50:28;;;;;;;7.50;6.40;;;;;;;;;;5072873;28;20202;-73
2022/04/07 00:52:58;;;;;;;6.83;6.13;;;;;;;;;;5071919;28;20228;-75
2022/04/07 00:55:27;;;;;;;7.00;6.27;;;;;;;;;;5056727;28;20203;-73
2022/04/07 00:57:55;;;;;;;6.97;6.27;;;;;;;;;;5065111;28;20585;-75
2022/04/07 01:00:24;;;;;;;6.60;5.80;;;;;;;;;;5072043;28;20226;-73
2022/04/07 01:02:52;;;;;;;7.23;6.20;;;;;;;;;;5072611;28;20255;-75
2022/04/07 01:05:24;;;;;;;6.33;5.73;;;;;;;;;;5076198;28;20275;-76
2022/04/07 01:07:53;;;;;;;6.40;5.73;;;;;;;;;;5081738;28;20229;-74
2022/04/07 01:10:21;;;;;;;7.90;6.00;;;;;;;;;;5072716;28;20252;-73
2022/04/07 01:12:50;;;;;;;8.03;6.10;;;;;;;;;;5072859;28;20206;-76
2022/04/07 01:15:18;;;;;;;9.13;8.00;;;;;;;;;;5070029;28;20201;-76
2022/04/07 01:17:47;;;;;;;10.83;7.30;;;;;;;;;;5089703;28;20217;-76
2022/04/07 01:20:15;;;;;;;6.97;6.27;;;;;;;;;;5075328;28;20221;-74
2022/04/07 01:22:46;;;;;;;7.90;6.70;;;;;;;;;;5083289;28;20209;-73
2022/04/07 01:25:16;;;;;;;7.13;6.33;;;;;;;;;;5073776;28;20206;-74
2022/04/07 01:27:48;;;;;;;7.70;6.10;;;;;;;;;;5078359;28;20230;-74
2022/04/07 01:30:17;;;;;;;6.47;5.30;;;;;;;;;;5089074;28;20592;-74
2022/04/07 01:32:47;;;;;;;5.90;5.27;;;;;;;;;;5071533;28;20293;-73
2022/04/07 01:35:16;;;;;;;5.87;5.03;;;;;;;;;;5083992;28;20259;-74
2022/04/07 01:37:45;;;;;;;6.57;4.83;;;;;;;;;;5071344;28;20605;-74
2022/04/07 01:40:17;;;;;;;5.53;5.03;;;;;;;;;;5074282;28;20632;-73
2022/04/07 01:42:46;;;;;;;5.27;4.20;;;;;;;;;;5066902;28;20198;-75
2022/04/07 01:45:15;;;;;;;4.60;4.20;;;;;;;;;;5073624;28;20547;-74
2022/04/07 01:47:44;;;;;;;4.83;4.30;;;;;;;;;;5087607;28;20535;-75
2022/04/07 01:50:13;;;;;;;4.47;3.70;;;;;;;;;;5079638;28;20190;-73
2022/04/07 01:52:42;;;;;;;4.50;4.10;;;;;;;;;;5078304;28;20201;-73
2022/04/07 01:55:10;;;;;;;5.63;4.00;;;;;;;;;;5083797;28;20198;-73
2022/04/07 01:57:40;;;;;;;4.30;3.83;;;;;;;;;;5072814;28;20232;-72
2022/04/07 02:00:09;;;;;;;5.40;3.80;;;;;;;;;;5072985;28;20626;-73
2022/04/07 02:02:38;;;;;;;4.10;3.73;;;;;;;;;;5071892;28;20252;-73
2022/04/07 02:05:11;;;;;;;4.43;3.93;;;;;;;;;;5080856;28;20279;-72
2022/04/07 02:07:40;;;;;;;4.43;3.43;;;;;;;;;;5087033;28;20249;-72
2022/04/07 02:10:09;;;;;;;3.90;3.60;;;;;;;;;;5074642;28;20268;-72
2022/04/07 02:12:38;;;;;;;5.20;4.27;;;;;;;;;;5075500;28;20201;-73
2022/04/07 02:15:08;;;;;;;4.40;3.93;;;;;;;;;;5082807;28;20203;-73
2022/04/07 02:17:37;;;;;;;4.97;4.10;;;;;;;;;;5070269;28;20227;-74
2022/04/07 02:20:07;;;;;;;4.50;4.10;;;;;;;;;;5071862;28;20218;-72
2022/04/07 02:22:35;;;;;;;4.10;3.73;;;;;;;;;;5073164;28;20206;-73
2022/04/07 02:25:04;;;;;;;4.30;3.90;;;;;;;;;;5065932;28;20257;-72
2022/04/07 02:27:44;;;;;;;5.73;4.10;;;;;;;;;;5071124;28;20230;-73
2022/04/07 02:30:15;;;;;;;5.00;4.20;;;;;;;;;;5090339;28;20220;-74
2022/04/07 02:32:44;;;;;;;5.47;4.30;;;;;;;;;;5084173;28;20606;-73
2022/04/07 02:35:13;;;;;;;5.63;4.47;;;;;;;;;;5077599;28;20632;-73
2022/04/07 02:37:42;;;;;;;4.70;4.27;;;;;;;;;;5080718;28;20230;-72
2022/04/07 02:40:13;;;;;;;4.63;3.67;;;;;;;;;;5077481;28;20222;-73
2022/04/07 02:42:41;;;;;;;5.27;4.27;;;;;;;;;;5075010;28;20195;-72
2022/04/07 02:45:10;;;;;;;5.07;4.57;;;;;;;;;;5085719;28;20263;-72
2022/04/07 02:47:39;;;;;;;5.10;3.87;;;;;;;;;;5080910;28;20233;-73
2022/04/07 02:50:08;;;;;;;4.10;3.70;;;;;;;;;;5092190;28;20206;-73
2022/04/07 02:52:37;;;;;;;3.93;3.53;;;;;;;;;;5079801;28;20209;-72
2022/04/07 02:55:06;;;;;;;4.87;3.70;;;;;;;;;;5078073;28;20194;-73
2022/04/07 02:57:34;;;;;;;4.80;3.50;;;;;;;;;;5074379;28;20226;-72
2022/04/07 03:00:03;;;;;;;4.33;3.87;;;;;;;;;;5081501;28;20229;-74
2022/04/07 03:02:31;;;;;;;4.33;3.93;;;;;;;;;;5082291;28;20210;-75
2022/04/07 03:05:01;;;;;;;4.20;3.80;;;;;;;;;;5090409;28;20264;-72
2022/04/07 03:07:30;;;;;;;4.43;3.70;;;;;;;;;;5080018;28;20226;-73
2022/04/07 03:09:58;;;;;;;5.57;4.27;;;;;;;;;;5075695;28;20225;-73
2022/04/07 03:12:26;;;;;;;4.07;3.77;;;;;;;;;;5080791;28;20262;-72
2022/04/07 03:14:55;;;;;;;4.67;3.73;;;;;;;;;;5082285;28;20315;-73
2022/04/07 03:17:23;;;;;;;4.17;3.60;;;;;;;;;;5080293;28;20279;-72
2022/04/07 03:19:52;;;;;;;3.90;3.50;;;;;;;;;;5075203;28;20609;-73
2022/04/07 03:22:22;;;;;;;4.80;3.27;;;;;;;;;;5074979;28;20231;-72
2022/04/07 03:24:50;;;;;;;5.00;3.20;;;;;;;;;;5074187;28;20255;-73
2022/04/07 03:27:18;;;;;;;3.90;2.93;;;;;;;;;;5074966;28;20583;-73
2022/04/07 03:29:47;;;;;;;5.00;3.50;;;;;;;;;;5074900;28;20677;-72
2022/04/07 03:32:15;;;;;;;5.33;3.40;;;;;;;;;;5073259;28;20194;-73
2022/04/07 03:34:44;;;;;;;4.83;3.37;;;;;;;;;;5072942;28;20218;-73
2022/04/07 03:37:14;;;;;;;4.20;3.17;;;;;;;;;;5089655;28;20227;-73
2022/04/07 03:39:44;;;;;;;4.07;3.30;;;;;;;;;;5073789;28;20328;-73
2022/04/07 03:42:12;;;;;;;7.33;3.60;;;;;;;;;;5072976;28;20271;-73
2022/04/07 03:44:41;;;;;;;5.43;3.30;;;;;;;;;;5072293;28;20237;-73
2022/04/07 03:47:10;;;;;;;3.80;2.90;;;;;;;;;;5074430;28;20309;-72
2022/04/07 03:49:38;;;;;;;4.53;2.90;;;;;;;;;;5074174;28;20203;-72
2022/04/07 03:52:07;;;;;;;3.23;2.57;;;;;;;;;;5072123;28;20198;-73
2022/04/07 03:54:35;;;;;;;3.23;2.70;;;;;;;;;;5073466;28;20199;-73
2022/04/07 03:57:05;;;;;;;3.80;2.50;;;;;;;;;;5073948;28;20230;-72
2022/04/07 03:59:38;;;;;;;4.87;2.67;;;;;;;;;;5072736;28;20803;-72
2022/04/07 04:02:06;;;;;;;6.97;2.90;;;;;;;;;;5070986;28;20331;-72
2022/04/07 04:04:35;;;;;;;2.80;2.50;;;;;;;;;;5073746;28;20727;-72
2022/04/07 04:07:04;;;;;;;3.23;2.40;;;;;;;;;;5073884;28;20280;-71
2022/04/07 04:09:32;;;;;;;4.63;2.73;;;;;;;;;;5073135;28;20207;-73
2022/04/07 04:12:01;;;;;;;4.30;2.70;;;;;;;;;;5073554;28;20213;-72
2022/04/07 04:14:30;;;;;;;4.90;2.47;;;;;;;;;;5072823;28;20219;-72
2022/04/07 04:16:59;;;;;;;4.13;2.30;;;;;;;;;;5073948;28;20218;-72
2022/04/07 04:19:27;;;;;;;6.53;2.33;;;;;;;;;;5068710;28;20224;-72
2022/04/07 04:21:56;;;;;;;4.07;2.60;;;;;;;;;;5061794;28;20214;-72
2022/04/07 04:24:24;;;;;;;4.03;2.23;;;;;;;;;;5072567;28;20720;-72
2022/04/07 04:26:53;;;;;;;3.10;2.00;;;;;;;;;;5071189;28;20717;-73
2022/04/07 04:29:21;;;;;;;4.97;2.57;;;;;;;;;;5073063;28;20748;-72
2022/04/07 04:31:51;;;;;;;3.93;2.30;;;;;;;;;;5072247;28;20211;-72
2022/04/07 04:34:19;;;;;;;3.13;2.10;;;;;;;;;;5072861;28;20198;-72
2022/04/07 04:36:48;;;;;;;3.63;2.30;;;;;;;;;;5070689;28;20225;-71
2022/04/07 04:39:16;;;;;;;3.03;2.17;;;;;;;;;;5070507;28;20252;-72
2022/04/07 04:41:44;;;;;;;3.17;1.90;;;;;;;;;;5063016;28;20234;-73
2022/04/07 04:44:13;;;;;;;2.53;1.90;;;;;;;;;;5060767;28;20267;-72
2022/04/07 04:46:42;;;;;;;3.70;2.10;;;;;;;;;;5072309;28;20257;-72
2022/04/07 04:49:12;;;;;;;5.20;2.47;;;;;;;;;;5071362;28;20198;-72
2022/04/07 04:51:40;;;;;;;2.10;2.00;;;;;;;;;;5068711;28;20202;-71
2022/04/07 04:54:11;;;;;;;3.27;2.03;;;;;;;;;;5072825;28;20202;-73
2022/04/07 04:56:39;;;;;;;2.43;2.23;;;;;;;;;;5070519;28;20226;-72
2022/04/07 04:59:07;;;;;;;5.00;2.37;;;;;;;;;;5071512;28;20617;-72
2022/04/07 05:01:36;;;;;;;3.37;2.27;;;;;;;;;;5071294;28;20234;-73
2022/04/07 05:04:05;;;;;;;4.03;2.20;;;;;;;;;;5072358;28;20569;-73
2022/04/07 05:06:34;;;;;;;5.50;2.20;;;;;;;;;;5077581;28;20307;-72
2022/04/07 05:09:03;;;;;;;5.03;2.53;;;;;;;;;;5071656;28;20206;-72
2022/04/07 05:11:31;;;;;;;3.30;1.90;;;;;;;;;;5065738;28;20800;-73
2022/04/07 05:13:59;;;;;;;3.00;2.00;;;;;;;;;;5076374;28;20231;-73
2022/04/07 05:16:28;;;;;;;2.57;1.90;;;;;;;;;;5073780;28;20202;-73
2022/04/07 05:18:57;;;;;;;3.77;1.80;;;;;;;;;;5071260;28;20205;-72
2022/04/07 05:21:26;;;;;;;2.40;2.00;;;;;;;;;;5071523;28;20256;-73
2022/04/07 05:23:55;;;;;;;3.97;1.90;;;;;;;;;;5072136;28;20256;-72
2022/04/07 05:26:24;;;;;;;2.77;1.70;;;;;;;;;;5072046;28;20198;-73
2022/04/07 05:28:52;;;;;;;2.77;1.87;;;;;;;;;;5071707;28;20275;-72
2022/04/07 05:31:21;;;;;;;2.10;1.70;;;;;;;;;;5071454;28;20206;-72
2022/04/07 05:33:49;;;;;;;2.67;1.90;;;;;;;;;;5072553;28;20622;-73
2022/04/07 05:36:17;;;;;;;3.10;1.70;;;;;;;;;;5070764;28;20202;-74
2022/04/07 05:38:46;;;;;;;3.30;1.90;;;;;;;;;;5070321;28;20236;-72
2022/04/07 05:41:15;;;;;;;5.73;2.03;;;;;;;;;;5071878;28;20240;-72
2022/04/07 05:43:44;;;;;;;5.13;2.20;;;;;;;;;;5072128;28;20267;-73
2022/04/07 05:46:12;;;;;;;3.90;2.17;;;;;;;;;;5072479;28;20661;-72
2022/04/07 05:48:41;;;;;;;3.00;1.83;;;;;;;;;;5072270;28;20316;-73
2022/04/07 05:51:09;;;;;;;4.60;1.63;;;;;;;;;;5071620;28;20230;-73
2022/04/07 05:53:38;;;;;;;4.50;1.97;;;;;;;;;;5071043;28;20195;-73
2022/04/07 05:56:06;;;;;;;3.10;1.90;;;;;;;;;;5072109;28;20612;-72
2022/04/07 05:58:36;;;;;;;2.90;1.67;;;;;;;;;;5072408;28;20220;-73
2022/04/07 06:01:04;;;;;;;3.83;1.70;;;;;;;;;;5072848;28;20206;-71
2022/04/07 06:03:33;;;;;;;4.17;1.90;;;;;;;;;;5076655;28;20301;-72
2022/04/07 06:06:01;;;;;;;5.13;1.97;;;;;;;;;;5085422;28;20228;-72
2022/04/07 06:08:56;;;;;;;3.17;1.40;;;;;;;;;;5081439;28;20238;-72
2022/04/07 06:11:24;;;;;;;4.57;1.83;;;;;;;;;;5075988;28;20190;-73
2022/04/07 06:13:54;;;;;;;6.17;2.13;;;;;;;;;;5075169;28;20269;-73
2022/04/07 06:16:22;;;;;;;2.93;1.47;;;;;;;;;;5075723;28;20214;-72
2022/04/07 06:18:52;;;;;;;3.83;1.83;;;;;;;;;;5076011;28;20237;-72
2022/04/07 06:21:23;;;;;;;3.27;1.60;;;;;;;;;;5076755;28;20252;-72
2022/04/07 06:23:51;;;;;;;5.00;2.07;;;;;;;;;;5074883;28;20229;-72
2022/04/07 06:26:20;;;;;;;5.00;2.00;;;;;;;;;;5075747;28;20213;-72
2022/04/07 06:28:48;;;;;;;5.27;1.93;;;;;;;;;;5075275;28;20248;-72
2022/04/07 06:31:18;;;;;;;4.40;1.80;;;;;;;;;;5079238;28;20201;-72
2022/04/07 06:33:46;;;;;;;3.70;1.60;;;;;;;;;;5074166;28;20260;-73
2022/04/07 06:36:34;;;;;;;4.47;2.00;;;;;;;;;;5088690;28;20549;-73
2022/04/07 06:39:03;;;;;;;2.40;1.40;;;;;;;;;;5075652;28;20210;-74
2022/04/07 06:41:32;;;;;;;4.13;1.70;;;;;;;;;;5075564;28;20301;-72
2022/04/07 06:44:00;;;;;;;4.40;1.87;;;;;;;;;;5075310;28;20615;-73
2022/04/07 06:46:32;;;;;;;3.90;1.50;;;;;;;;;;5075588;28;20718;-74
2022/04/07 06:49:01;;;;;;;3.13;1.67;;;;;;;;;;5075523;28;20199;-72
2022/04/07 06:51:29;;;;;;;2.57;1.30;;;;;;;;;;5075655;28;20615;-73
2022/04/07 06:53:58;;;;;;;3.40;1.50;;;;;;;;;;5074258;28;20223;-72
2022/04/07 06:56:26;;;;;;;2.40;1.33;;;;;;;;;;5080489;28;20203;-74
2022/04/07 06:58:55;;;;;;;1.70;1.40;;;;;;;;;;5088853;28;20232;-72
2022/04/07 07:01:24;;;;;;;1.67;1.27;;;;;;;;;;5075668;28;20256;-73
2022/04/07 07:03:53;;;;;;;1.20;1.10;;;;;;;;;;5073411;28;20261;-73
2022/04/07 07:06:22;;;;;;;3.90;1.30;;;;;;;;;;5074417;28;20214;-73
2022/04/07 07:08:50;;;;;;;1.40;1.10;;;;;;;;;;5070971;28;20542;-73
2022/04/07 07:11:19;;;;;;;2.43;1.17;;;;;;;;;;5073865;28;20214;-72
2022/04/07 07:13:47;;;;;;;1.33;1.10;;;;;;;;;;5074296;28;20199;-72
2022/04/07 07:16:15;;;;;;;0.90;0.90;;;;;;;;;;5073658;28;20202;-73
2022/04/07 07:18:44;;;;;;;1.40;1.10;;;;;;;;;;5074729;28;20555;-73
2022/04/07 07:21:14;;;;;;;1.50;0.90;;;;;;;;;;5075079;28;20207;-73
2022/04/07 07:23:42;;;;;;;1.60;1.20;;;;;;;;;;5074550;28;20230;-72
2022/04/07 07:26:12;;;;;;;2.17;1.20;;;;;;;;;;5074979;28;20190;-72
2022/04/07 07:28:41;;;;;;;2.00;1.10;;;;;;;;;;5074875;28;20248;-73
2022/04/07 07:31:09;;;;;;;2.70;1.20;;;;;;;;;;5075108;28;20202;-73
2022/04/07 07:33:37;;;;;;;1.20;1.10;;;;;;;;;;5074337;28;20614;-72
2022/04/07 07:36:06;;;;;;;1.83;1.30;;;;;;;;;;5075892;28;20635;-73
2022/04/07 07:38:36;;;;;;;2.70;1.10;;;;;;;;;;5074495;28;20272;-73
2022/04/07 07:41:05;;;;;;;1.80;1.00;;;;;;;;;;5074757;28;20252;-72
2022/04/07 07:43:33;;;;;;;1.33;1.20;;;;;;;;;;5074277;28;20214;-73
2022/04/07 07:46:02;;;;;;;2.97;1.13;;;;;;;;;;5074693;28;20264;-73
2022/04/07 07:48:31;;;;;;;1.43;1.20;;;;;;;;;;5073896;28;20226;-73
2022/04/07 07:50:59;;;;;;;1.07;1.00;;;;;;;;;;5074681;28;20206;-73
2022/04/07 07:53:28;;;;;;;1.43;1.10;;;;;;;;;;5063210;28;20252;-73
2022/04/07 07:55:58;;;;;;;1.30;1.03;;;;;;;;;;5074221;28;20571;-72
2022/04/07 07:58:26;;;;;;;1.57;0.90;;;;;;;;;;5074116;28;20230;-72
2022/04/07 08:00:56;;;;;;;3.00;1.17;;;;;;;;;;5074496;28;20214;-72
2022/04/07 08:03:24;;;;;;;1.13;0.90;;;;;;;;;;5073778;28;20303;-75
2022/04/07 08:05:53;;;;;;;1.17;0.90;;;;;;;;;;5081838;28;20297;-74
2022/04/07 08:08:21;;;;;;;0.80;0.80;;;;;;;;;;5077752;28;20218;-73
2022/04/07 08:10:50;;;;;;;1.30;0.80;;;;;;;;;;5072075;28;20203;-74
2022/04/07 08:13:19;;;;;;;0.97;0.90;;;;;;;;;;5072260;28;20561;-75
2022/04/07 08:15:48;;;;;;;1.07;0.87;;;;;;;;;;5074659;28;20194;-75
2022/04/07 08:18:16;;;;;;;1.63;0.80;;;;;;;;;;5073788;28;20226;-73
2022/04/07 08:20:45;;;;;;;1.00;1.00;;;;;;;;;;5073808;28;20563;-76
2022/04/07 08:23:13;;;;;;;1.00;1.00;;;;;;;;;;5073195;28;20226;-76
2022/04/07 08:25:42;;;;;;;1.43;1.00;;;;;;;;;;5073233;28;20206;-74
2022/04/07 08:28:11;;;;;;;0.83;0.83;;;;;;;;;;5073629;28;20241;-74
2022/04/07 08:30:41;;;;;;;1.40;0.80;;;;;;;;;;5073838;28;20210;-73
2022/04/07 08:33:09;;;;;;;1.93;0.90;;;;;;;;;;5073124;28;20202;-75
2022/04/07 08:35:37;;;;;;;1.10;0.83;;;;;;;;;;5076081;28;20201;-72
2022/04/07 08:38:06;;;;;;;0.87;0.60;;;;;;;;;;5073139;28;20210;-75
2022/04/07 08:40:37;;;;;;;2.03;0.70;;;;;;;;;;5073405;28;20199;-76
2022/04/07 08:43:07;;;;;;;1.10;0.70;;;;;;;;;;5073064;28;20650;-74
2022/04/07 08:45:36;;;;;;;1.03;0.93;;;;;;;;;;5073327;28;20202;-74
2022/04/07 08:48:07;;;;;;;0.60;0.60;;;;;;;;;;5061476;28;20218;-75
2022/04/07 08:50:35;;;;;;;1.00;0.70;;;;;;;;;;5073047;28;20198;-73
2022/04/07 08:53:04;;;;;;;1.30;0.63;;;;;;;;;;5073111;28;20194;-74
2022/04/07 08:55:32;;;;;;;1.27;0.50;;;;;;;;;;5073588;28;20205;-73
2022/04/07 08:58:01;;;;;;;0.70;0.70;;;;;;;;;;5073217;28;20248;-75
2022/04/07 09:00:30;;;;;;;0.60;0.60;;;;;;;;;;5073266;28;20244;-74
2022/04/07 09:02:58;;;;;;;0.73;0.60;;;;;;;;;;5072606;28;20198;-75
2022/04/07 09:05:34;;;;;;;1.13;0.60;;;;;;;;;;5075744;28;20709;-73
2022/04/07 09:08:02;;;;;;;1.80;0.73;;;;;;;;;;5072923;28;20233;-74
2022/04/07 09:10:31;;;;;;;0.90;0.80;;;;;;;;;;5072853;28;20660;-74
2022/04/07 09:13:04;;;;;;;1.37;0.90;;;;;;;;;;5073277;28;20206;-73
2022/04/07 09:15:33;;;;;;;0.93;0.70;;;;;;;;;;5072565;28;20248;-74
2022/04/07 09:18:02;;;;;;;1.20;0.67;;;;;;;;;;5072455;28;20210;-74
2022/04/07 09:20:30;;;;;;;0.60;0.60;;;;;;;;;;5073071;28;20209;-73
2022/04/07 09:23:01;;;;;;;1.70;0.80;;;;;;;;;;5072907;28;20194;-74
2022/04/07 09:25:30;;;;;;;1.63;0.73;;;;;;;;;;5056905;28;20645;-74
2022/04/07 09:28:00;;;;;;;1.20;1.10;;;;;;;;;;5072677;28;20264;-75
2022/04/07 09:30:37;;;;;;;0.77;0.70;;;;;;;;;;5072663;28;20267;-74
2022/04/07 09:33:06;;;;;;;1.80;1.20;;;;;;;;;;5072690;28;20656;-75
2022/04/07 09:35:35;;;;;;;3.33;2.10;;;;;;;;;;5071662;28;20202;-75
2022/04/07 09:38:04;;;;;;;1.47;0.90;;;;;;;;;;5076346;28;20226;-75
2022/04/07 09:40:33;;;;;;;1.27;0.80;;;;;;;;;;5077496;28;20607;-75
2022/04/07 09:43:01;;;;;;;1.53;0.70;;;;;;;;;;5076776;28;20275;-73
2022/04/07 09:45:30;;;;;;;1.50;0.80;;;;;;;;;;5076692;28;20693;-74
2022/04/07 09:48:19;;;;;;;3.00;0.80;;;;;;;;;;5076311;28;20743;-73
2022/04/07 09:51:02;;;;;;;1.60;0.80;;;;;;;;;;5076758;28;20251;-74
2022/04/07 09:53:36;;;;;;;3.60;0.93;;;;;;;;;;5076117;28;20194;-73
2022/04/07 09:56:04;;;;;;;1.30;0.90;;;;;;;;;;5076886;28;20198;-73
2022/04/07 09:58:33;;;;;;;2.27;0.97;;;;;;;;;;5076371;28;20214;-71
2022/04/07 10:01:03;;;;;;;1.60;1.20;;;;;;;;;;5076386;28;20195;-73
2022/04/07 10:03:32;;;;;;;1.30;1.00;;;;;;;;;;5075579;28;20206;-73
2022/04/07 10:06:00;;;;;;;1.73;1.07;;;;;;;;;;5076061;28;20222;-72
2022/04/07 10:08:29;;;;;;;0.80;0.80;;;;;;;;;;5076937;28;20238;-73
2022/04/07 10:10:59;;;;;;;2.07;1.10;;;;;;;;;;5076181;28;20213;-73
2022/04/07 10:13:27;;;;;;;1.67;1.10;;;;;;;;;;5076279;28;20267;-73
2022/04/07 10:15:56;;;;;;;1.50;1.17;;;;;;;;;;5076108;28;20191;-73
2022/04/07 10:18:29;;;;;;;0.63;0.63;;;;;;;;;;5076186;28;20588;-74
2022/04/07 10:20:59;;;;;;;1.40;0.90;;;;;;;;;;5075985;28;20276;-73
2022/04/07 10:23:44;;;;;;;2.37;1.23;;;;;;;;;;5075971;28;20208;-73
2022/04/07 10:26:15;;;;;;;1.43;1.13;;;;;;;;;;5075451;28;20225;-73
2022/04/07 10:28:43;;;;;;;1.30;1.20;;;;;;;;;;5076277;28;20198;-73
2022/04/07 10:31:15;;;;;;;1.30;1.17;;;;;;;;;;5075590;28;20252;-74
2022/04/07 10:33:46;;;;;;;1.30;1.20;;;;;;;;;;5075420;28;20728;-72
2022/04/07 10:36:20;;;;;;;2.70;1.30;;;;;;;;;;5083856;28;20257;-73
2022/04/07 10:38:51;;;;;;;1.60;1.50;;;;;;;;;;5075764;28;20202;-73
2022/04/07 10:41:38;;;;;;;1.40;1.20;;;;;;;;;;5075382;28;20194;-73
2022/04/07 10:44:12;;;;;;;1.73;0.70;;;;;;;;;;5075323;28;20657;-74
2022/04/07 10:46:41;;;;;;;0.77;0.77;;;;;;;;;;5075798;28;20226;-75
2022/04/07 10:49:10;;;;;;;0.47;0.47;;;;;;;;;;5074769;28;20207;-74
2022/04/07 10:51:42;;;;;;;0.67;0.67;;;;;;;;;;5075851;28;20199;-75
2022/04/07 10:54:11;;;;;;;0.67;0.50;;;;;;;;;;5074924;28;20323;-75
2022/04/07 10:56:41;;;;;;;0.83;0.63;;;;;;;;;;5075789;28;20303;-75
2022/04/07 10:59:14;;;;;;;0.70;0.67;;;;;;;;;;5075403;28;20252;-75
2022/04/07 11:01:53;;;;;;;0.50;0.50;;;;;;;;;;5075548;28;20203;-74
2022/04/07 11:04:36;;;;;;;0.53;0.53;;;;;;;;;;5074637;28;20252;-74
2022/04/07 11:07:17;;;;;;;1.20;0.90;;;;;;;;;;5073244;28;20225;-74
2022/04/07 11:09:50;;;;;;;0.67;0.67;;;;;;;;;;5075361;28;20234;-75
2022/04/07 11:12:20;;;;;;;1.00;0.90;;;;;;;;;;5075299;28;20203;-74
2022/04/07 11:14:50;;;;;;;0.60;0.53;;;;;;;;;;5074886;28;20562;-74
2022/04/07 11:17:31;;;;;;;0.40;0.40;;;;;;;;;;5074797;28;20631;-74
2022/04/07 11:20:05;;;;;;;0.70;0.70;;;;;;;;;;5075079;28;20206;-73
2022/04/07 11:22:46;;;;;;;0.60;0.60;;;;;;;;;;5075059;28;20207;-74
2022/04/07 11:25:15;;;;;;;0.90;0.70;;;;;;;;;;5074279;28;20224;-74
2022/04/07 11:27:45;;;;;;;0.77;0.77;;;;;;;;;;5075422;28;20225;-73
2022/04/07 11:30:15;;;;;;;1.13;1.03;;;;;;;;;;5075410;28;20241;-74
2022/04/07 11:32:58;;;;;;;0.63;0.63;;;;;;;;;;5074742;28;20540;-73
2022/04/07 11:35:27;;;;;;;1.73;1.00;;;;;;;;;;5069534;28;20607;-72
2022/04/07 11:37:55;;;;;;;1.30;0.90;;;;;;;;;;5084905;28;20222;-73
2022/04/07 11:40:24;;;;;;;1.00;0.97;;;;;;;;;;5074566;28;20256;-73
2022/04/07 11:42:52;;;;;;;0.80;0.80;;;;;;;;;;5074890;28;20276;-73
2022/04/07 11:45:22;;;;;;;1.53;0.80;;;;;;;;;;5072861;28;20222;-73
2022/04/07 11:47:50;;;;;;;1.40;1.00;;;;;;;;;;5074519;28;20305;-73
2022/04/07 11:50:21;;;;;;;2.50;0.80;;;;;;;;;;5072533;28;20206;-72
2022/04/07 11:52:50;;;;;;;2.43;1.10;;;;;;;;;;5074386;28;20278;-72
2022/04/07 11:55:28;;;;;;;2.43;1.00;;;;;;;;;;5074035;28;20725;-73
2022/04/07 11:57:59;;;;;;;2.97;1.23;;;;;;;;;;5074128;28;20287;-72
2022/04/07 12:00:35;;;;;;;1.00;0.90;;;;;;;;;;5073814;28;20217;-72
2022/04/07 12:03:04;;;;;;;2.20;1.00;;;;;;;;;;5074351;28;20203;-72
2022/04/07 12:05:32;;;;;;;2.27;1.00;;;;;;;;;;5071987;28;20219;-72
2022/04/07 12:08:06;;;;;;;0.80;0.70;;;;;;;;;;5069511;28;20222;-73
2022/04/07 12:10:35;;;;;;;1.93;0.87;;;;;;;;;;5069469;28;20207;-72
2022/04/07 12:13:04;;;;;;;1.80;0.97;;;;;;;;;;5069546;28;20253;-72
2022/04/07 12:15:35;;;;;;;3.57;1.10;;;;;;;;;;5072346;28;20285;-73
2022/04/07 12:18:05;;;;;;;2.20;0.90;;;;;;;;;;5068053;28;20728;-72
2022/04/07 12:20:33;;;;;;;1.37;1.00;;;;;;;;;;5070981;28;20289;-72
2022/04/07 12:23:07;;;;;;;1.77;0.70;;;;;;;;;;5072486;28;20198;-72
2022/04/07 12:25:35;;;;;;;3.90;1.30;;;;;;;;;;5073148;28;20249;-72
2022/04/07 12:28:08;;;;;;;2.47;1.37;;;;;;;;;;5073989;28;20310;-71
2022/04/07 12:30:44;;;;;;;2.00;1.20;;;;;;;;;;5073178;28;20214;-71
2022/04/07 12:33:12;;;;;;;2.33;1.07;;;;;;;;;;5063714;28;20276;-72
2022/04/07 12:35:47;;;;;;;2.20;1.10;;;;;;;;;;5079016;28;20629;-72
2022/04/07 12:38:15;;;;;;;2.50;1.20;;;;;;;;;;5076452;28;20704;-72
2022/04/07 12:40:44;;;;;;;1.87;1.20;;;;;;;;;;5077220;28;20207;-72
2022/04/07 12:43:13;;;;;;;3.37;1.20;;;;;;;;;;5053906;28;20678;-73
2022/04/07 12:48:35;;;;;;;2.83;1.30;;;;;;;;;;5108518;27;21076;-73
2022/04/07 12:51:18;;;;;;;2.10;1.30;;;;;;;;;;5097084;28;20612;-72
2022/04/07 12:53:47;;;;;;;2.10;1.20;;;;;;;;;;5103990;28;20225;-72
2022/04/07 12:56:25;;;;;;;2.70;1.20;;;;;;;;;;5086981;28;20194;-72
2022/04/07 12:59:03;;;;;;;1.10;1.00;;;;;;;;;;5087961;28;20208;-73
2022/04/07 13:01:33;;;;;;;1.00;0.83;;;;;;;;;;5073976;28;20201;-73
2022/04/07 13:04:06;;;;;;;1.60;0.83;;;;;;;;;;5070070;28;20199;-72
2022/04/07 13:06:34;;;;;;;3.00;1.03;;;;;;;;;;5099334;28;20220;-72
2022/04/07 13:09:02;;;;;;;1.87;1.00;;;;;;;;;;5076492;28;20221;-72
2022/04/07 13:11:32;;;;;;;3.30;1.20;;;;;;;;;;5074872;28;20607;-72
2022/04/07 13:14:01;;;;;;;2.30;0.90;;;;;;;;;;5082566;28;20213;-73
2022/04/07 13:16:33;;;;;;;4.37;1.13;;;;;;;;;;5078333;28;20218;-74
2022/04/07 13:19:02;;;;;;;2.47;0.97;;;;;;;;;;5088237;28;20206;-73
2022/04/07 13:21:33;;;;;;;1.03;0.80;;;;;;;;;;5087685;28;20634;-73
2022/04/07 13:24:02;;;;;;;1.80;1.03;;;;;;;;;;5081181;27;20220;-73
2022/04/07 13:26:30;;;;;;;1.37;0.90;;;;;;;;;;5075708;28;20233;-72
2022/04/07 13:28:59;;;;;;;3.30;1.20;;;;;;;;;;5081374;28;20281;-73
2022/04/07 13:31:27;;;;;;;2.80;1.30;;;;;;;;;;5080432;28;20605;-73
2022/04/07 13:33:55;;;;;;;3.37;1.10;;;;;;;;;;5078700;28;20232;-72
2022/04/07 13:36:24;;;;;;;5.23;1.50;;;;;;;;;;5075062;28;20227;-75
2022/04/07 13:38:54;;;;;;;2.77;1.30;;;;;;;;;;5071343;28;20217;-75
2022/04/07 13:41:23;;;;;;;4.83;1.50;;;;;;;;;;5071813;27;20211;-75
2022/04/07 13:43:52;;;;;;;3.90;1.40;;;;;;;;;;5072028;28;20662;-74
2022/04/07 13:46:20;;;;;;;2.80;1.40;;;;;;;;;;5079446;28;20601;-73
2022/04/07 13:48:52;;;;;;;3.90;1.53;;;;;;;;;;5079138;28;20229;-73
2022/04/07 13:51:21;;;;;;;4.17;1.50;;;;;;;;;;5086031;28;20255;-73
2022/04/07 13:53:50;;;;;;;4.53;1.47;;;;;;;;;;5082365;28;20193;-72
2022/04/07 13:56:22;;;;;;;4.23;1.70;;;;;;;;;;5093011;28;20205;-71
2022/04/07 13:58:50;;;;;;;3.97;1.53;;;;;;;;;;5072213;28;20202;-73
2022/04/07 14:01:21;;;;;;;6.33;1.60;;;;;;;;;;5080061;28;20202;-72
2022/04/07 14:03:53;;;;;;;4.03;1.60;;;;;;;;;;5071566;28;20226;-71
2022/04/07 14:06:22;;;;;;;6.63;1.50;;;;;;;;;;5079634;28;20198;-69
2022/04/07 14:08:51;;;;;;;5.60;1.80;;;;;;;;;;5054213;28;20226;-72
2022/04/07 14:11:21;;;;;;;5.50;1.60;;;;;;;;;;5064093;28;20209;-72
2022/04/07 14:13:51;;;;;;;4.37;1.67;;;;;;;;;;5062472;28;20194;-73
2022/04/07 14:16:21;;;;;;;3.83;1.40;;;;;;;;;;5056069;28;20242;-71
2022/04/07 14:18:50;;;;;;;4.17;1.60;;;;;;;;;;5070224;28;20214;-72
2022/04/07 14:21:20;;;;;;;3.77;1.60;;;;;;;;;;5067254;28;20198;-73
2022/04/07 14:23:54;;;;;;;5.50;1.60;;;;;;;;;;5054053;28;20290;-72
2022/04/07 14:26:27;;;;;;;5.00;1.70;;;;;;;;;;5061999;28;20210;-72
2022/04/07 14:28:56;;;;;;;5.50;1.47;;;;;;;;;;5062897;28;20266;-72
2022/04/07 14:31:25;;;;;;;4.17;1.80;;;;;;;;;;5055122;28;20203;-72
2022/04/07 14:33:55;;;;;;;4.33;1.47;;;;;;;;;;5064429;28;20202;-72
2022/04/07 14:36:24;;;;;;;7.33;2.00;;;;;;;;;;5056797;28;20209;-70
2022/04/07 14:38:52;;;;;;;4.90;1.70;;;;;;;;;;5065933;28;20229;-72
2022/04/07 14:41:21;;;;;;;7.03;2.00;;;;;;;;;;5071379;28;20215;-73
2022/04/07 14:43:50;;;;;;;5.93;1.63;;;;;;;;;;5055894;28;20207;-72
2022/04/07 14:46:21;;;;;;;7.20;1.63;;;;;;;;;;5057253;28;20226;-71
2022/04/07 14:48:50;;;;;;;8.30;1.80;;;;;;;;;;5068477;28;20218;-72
2022/04/07 14:51:18;;;;;;;5.47;1.70;;;;;;;;;;5060997;28;20203;-71
2022/04/07 14:53:47;;;;;;;3.43;1.57;;;;;;;;;;5061620;28;20202;-71
2022/04/07 14:56:15;;;;;;;5.60;1.80;;;;;;;;;;5058586;28;20317;-73
2022/04/07 14:58:45;;;;;;;4.37;1.57;;;;;;;;;;5058596;28;20194;-72
2022/04/07 15:01:15;;;;;;;5.93;1.60;;;;;;;;;;5057980;28;20278;-73